DAL1628 KSEA-KLAX
Flight info
| Callsign | DAL1628 |
|---|---|
| Flight time | 2h 6m |
| Altitude | 41000 |
| Route | SUMMA2 SUMMA JINMO Q7 JAGWA BURGL IRNMN2 |
| Aircraft | A359/H-SDE2E3GHIJ3J4J5LM1ORWXY/LB1D1 |
Departure
| Time | 2026-04-25 19:20 |
|---|---|
| Airport | Seattle–Tacoma International Airport (KSEA) |
Arrival
| Time | 2026-04-25 21:26 |
|---|---|
| Airport | Los Angeles International Airport (KLAX) |
| Time | Latitude | Longitude | Altitude | Speed | Heading |
|---|---|---|---|---|---|
| 2026-04-25 18:32 | 47.43978 | -122.30190 | 392 ft | 0 kts | 175° |
| 2026-04-25 19:09 | 47.43998 | -122.30192 | 389 ft | 4 kts | 171° |
| 2026-04-25 19:10 | 47.44016 | -122.30198 | 393 ft | 4 kts | 165° |
| 2026-04-25 19:10 | 47.44045 | -122.30193 | 391 ft | 4 kts | 223° |
| 2026-04-25 19:10 | 47.44056 | -122.30161 | 393 ft | 4 kts | 258° |
| 2026-04-25 19:10 | 47.44060 | -122.30139 | 393 ft | 1 kts | 256° |
| 2026-04-25 19:11 | 47.44060 | -122.30136 | 393 ft | 0 kts | 256° |
| 2026-04-25 19:14 | 47.44060 | -122.30138 | 393 ft | 1 kts | 256° |
| 2026-04-25 19:15 | 47.44047 | -122.30200 | 390 ft | 12 kts | 246° |
| 2026-04-25 19:15 | 47.43999 | -122.30342 | 393 ft | 17 kts | 253° |
| 2026-04-25 19:15 | 47.43992 | -122.30533 | 390 ft | 15 kts | 271° |
| 2026-04-25 19:15 | 47.43971 | -122.30624 | 389 ft | 10 kts | 216° |
| 2026-04-25 19:16 | 47.43886 | -122.30636 | 387 ft | 15 kts | 180° |
| 2026-04-25 19:16 | 47.43766 | -122.30639 | 383 ft | 20 kts | 181° |
| 2026-04-25 19:16 | 47.43622 | -122.30616 | 378 ft | 21 kts | 156° |
| 2026-04-25 19:16 | 47.43474 | -122.30561 | 375 ft | 24 kts | 180° |
| 2026-04-25 19:17 | 47.43313 | -122.30563 | 371 ft | 12 kts | 180° |
| 2026-04-25 19:17 | 47.43251 | -122.30570 | 372 ft | 11 kts | 193° |
| 2026-04-25 19:17 | 47.43193 | -122.30621 | 370 ft | 6 kts | 225° |
| 2026-04-25 19:17 | 47.43175 | -122.30696 | 369 ft | 9 kts | 265° |
| 2026-04-25 19:18 | 47.43191 | -122.30786 | 372 ft | 7 kts | 314° |
| 2026-04-25 19:18 | 47.43239 | -122.30803 | 370 ft | 8 kts | 356° |
| 2026-04-25 19:18 | 47.43274 | -122.30803 | 369 ft | 0 kts | 0° |
| 2026-04-25 19:19 | 47.43481 | -122.30802 | 373 ft | 69 kts | 0° |
| 2026-04-25 19:19 | 47.43665 | -122.30800 | 376 ft | 93 kts | 0° |
| 2026-04-25 19:20 | 47.45309 | -122.30761 | 828 ft | 159 kts | 360° |
| 2026-04-25 19:20 | 47.46384 | -122.30757 | 1746 ft | 157 kts | 358° |
| 2026-04-25 19:20 | 47.47561 | -122.30790 | 2175 ft | 184 kts | 357° |
| 2026-04-25 19:20 | 47.48942 | -122.30870 | 2611 ft | 214 kts | 357° |
| 2026-04-25 19:21 | 47.50488 | -122.30919 | 3241 ft | 230 kts | 358° |
| 2026-04-25 19:21 | 47.53844 | -122.30791 | 4710 ft | 257 kts | 14° |
| 2026-04-25 19:21 | 47.55317 | -122.29323 | 5704 ft | 260 kts | 51° |
| 2026-04-25 19:22 | 47.55961 | -122.26839 | 6813 ft | 264 kts | 82° |
| 2026-04-25 19:22 | 47.55721 | -122.24117 | 7646 ft | 278 kts | 103° |
| 2026-04-25 19:22 | 47.54710 | -122.18508 | 9756 ft | 285 kts | 102° |
| 2026-04-25 19:23 | 47.54364 | -122.16586 | 10387 ft | 291 kts | 102° |
| 2026-04-25 19:23 | 47.52997 | -122.09296 | 11613 ft | 339 kts | 109° |
| 2026-04-25 19:23 | 47.51818 | -122.06215 | 12439 ft | 350 kts | 127° |
| 2026-04-25 19:24 | 47.50623 | -122.04510 | 13004 ft | 359 kts | 142° |
| 2026-04-25 19:24 | 47.48332 | -122.02969 | 13829 ft | 368 kts | 166° |
| 2026-04-25 19:24 | 47.43152 | -122.02542 | 14810 ft | 380 kts | 179° |
| 2026-04-25 19:25 | 47.37796 | -122.02403 | 15848 ft | 388 kts | 178° |
| 2026-04-25 19:25 | 47.35084 | -122.02297 | 16412 ft | 391 kts | 178° |
| 2026-04-25 19:25 | 47.32356 | -122.02177 | 16936 ft | 395 kts | 178° |
| 2026-04-25 19:26 | 47.29597 | -122.02050 | 17453 ft | 398 kts | 178° |
| 2026-04-25 19:26 | 47.26810 | -122.01921 | 17982 ft | 402 kts | 178° |
| 2026-04-25 19:26 | 47.24005 | -122.01789 | 18437 ft | 405 kts | 178° |
| 2026-04-25 19:26 | 47.21178 | -122.01655 | 18882 ft | 408 kts | 177° |
| 2026-04-25 19:27 | 47.18336 | -122.01520 | 19354 ft | 410 kts | 177° |
| 2026-04-25 19:27 | 47.16450 | -122.01430 | 19658 ft | 411 kts | 177° |
| 2026-04-25 19:27 | 47.12607 | -122.01246 | 20258 ft | 414 kts | 177° |
| 2026-04-25 19:27 | 47.09720 | -122.01107 | 20712 ft | 416 kts | 176° |
| 2026-04-25 19:28 | 47.06822 | -122.00969 | 21183 ft | 418 kts | 176° |
| 2026-04-25 19:28 | 47.03909 | -122.00829 | 21604 ft | 420 kts | 176° |
| 2026-04-25 19:28 | 47.00980 | -122.00689 | 22044 ft | 422 kts | 176° |
| 2026-04-25 19:28 | 46.98042 | -122.00549 | 22490 ft | 424 kts | 176° |
| 2026-04-25 19:29 | 46.95084 | -122.00408 | 22904 ft | 426 kts | 176° |
| 2026-04-25 19:29 | 46.92119 | -122.00267 | 23327 ft | 428 kts | 176° |
| 2026-04-25 19:29 | 46.89133 | -122.00125 | 23758 ft | 429 kts | 176° |
| 2026-04-25 19:29 | 46.86151 | -121.99983 | 24133 ft | 430 kts | 176° |
| 2026-04-25 19:30 | 46.83149 | -121.99841 | 24441 ft | 433 kts | 176° |
| 2026-04-25 19:30 | 46.80120 | -121.99697 | 24787 ft | 436 kts | 176° |
| 2026-04-25 19:30 | 46.77086 | -121.99554 | 25136 ft | 438 kts | 176° |
| 2026-04-25 19:30 | 46.74025 | -121.99409 | 25485 ft | 440 kts | 176° |
| 2026-04-25 19:31 | 46.70960 | -121.99265 | 25851 ft | 443 kts | 176° |
| 2026-04-25 19:31 | 46.67872 | -121.99119 | 26254 ft | 445 kts | 176° |
| 2026-04-25 19:31 | 46.64764 | -121.99006 | 26656 ft | 449 kts | 178° |
| 2026-04-25 19:31 | 46.61632 | -121.99379 | 27025 ft | 455 kts | 188° |
| 2026-04-25 19:32 | 46.58539 | -122.00488 | 27465 ft | 459 kts | 195° |
| 2026-04-25 19:32 | 46.55502 | -122.01986 | 27924 ft | 463 kts | 199° |
| 2026-04-25 19:32 | 46.52493 | -122.03679 | 28374 ft | 466 kts | 200° |
| 2026-04-25 19:32 | 46.50450 | -122.04878 | 28681 ft | 468 kts | 200° |
| 2026-04-25 19:33 | 46.46433 | -122.07244 | 29272 ft | 473 kts | 200° |
| 2026-04-25 19:33 | 46.43370 | -122.09019 | 29721 ft | 476 kts | 200° |
| 2026-04-25 19:33 | 46.40236 | -122.10607 | 30129 ft | 478 kts | 193° |
| 2026-04-25 19:33 | 46.36974 | -122.11506 | 30492 ft | 478 kts | 183° |
| 2026-04-25 19:34 | 46.33654 | -122.11574 | 30831 ft | 478 kts | 172° |
| 2026-04-25 19:34 | 46.30337 | -122.11017 | 31171 ft | 480 kts | 169° |
| 2026-04-25 19:34 | 46.27029 | -122.10278 | 31520 ft | 483 kts | 168° |
| 2026-04-25 19:34 | 46.23707 | -122.09454 | 31855 ft | 486 kts | 168° |
| 2026-04-25 19:35 | 46.20367 | -122.08601 | 32173 ft | 489 kts | 168° |
| 2026-04-25 19:35 | 46.17007 | -122.07749 | 32502 ft | 492 kts | 168° |
| 2026-04-25 19:35 | 46.13623 | -122.06907 | 32839 ft | 494 kts | 169° |
| 2026-04-25 19:35 | 46.11047 | -122.06278 | 33062 ft | 497 kts | 169° |
| 2026-04-25 19:36 | 46.07602 | -122.05447 | 33354 ft | 499 kts | 169° |
| 2026-04-25 19:36 | 46.04157 | -122.04626 | 33611 ft | 503 kts | 169° |
| 2026-04-25 19:36 | 46.00699 | -122.03805 | 33884 ft | 505 kts | 169° |
| 2026-04-25 19:36 | 45.97226 | -122.02983 | 34180 ft | 506 kts | 169° |
| 2026-04-25 19:37 | 45.93756 | -122.02162 | 34541 ft | 505 kts | 170° |
| 2026-04-25 19:37 | 45.90287 | -122.01342 | 34852 ft | 505 kts | 170° |
| 2026-04-25 19:37 | 45.86816 | -122.00522 | 35092 ft | 507 kts | 170° |
| 2026-04-25 19:37 | 45.83334 | -121.99699 | 35412 ft | 506 kts | 170° |
| 2026-04-25 19:38 | 45.79859 | -121.98879 | 35754 ft | 506 kts | 170° |
| 2026-04-25 19:38 | 45.76388 | -121.98061 | 36078 ft | 506 kts | 170° |
| 2026-04-25 19:38 | 45.72919 | -121.97244 | 36403 ft | 506 kts | 170° |
| 2026-04-25 19:38 | 45.69439 | -121.96426 | 36654 ft | 507 kts | 170° |
| 2026-04-25 19:39 | 45.65962 | -121.95609 | 36954 ft | 507 kts | 170° |
| 2026-04-25 19:39 | 45.62480 | -121.94791 | 37263 ft | 507 kts | 170° |
| 2026-04-25 19:39 | 45.58994 | -121.93975 | 37554 ft | 507 kts | 170° |
| 2026-04-25 19:39 | 45.55515 | -121.93163 | 37868 ft | 507 kts | 170° |
| 2026-04-25 19:40 | 45.52032 | -121.92349 | 38216 ft | 506 kts | 171° |
| 2026-04-25 19:40 | 45.48552 | -121.91537 | 38489 ft | 507 kts | 171° |
| 2026-04-25 19:40 | 45.45066 | -121.90724 | 38668 ft | 508 kts | 171° |
| 2026-04-25 19:40 | 45.41584 | -121.89913 | 38992 ft | 505 kts | 171° |
| 2026-04-25 19:41 | 45.38126 | -121.89109 | 39246 ft | 504 kts | 171° |
| 2026-04-25 19:41 | 45.34660 | -121.88305 | 39459 ft | 504 kts | 171° |
| 2026-04-25 19:41 | 45.31201 | -121.87503 | 39646 ft | 505 kts | 171° |
| 2026-04-25 19:41 | 45.30075 | -121.87242 | 39710 ft | 505 kts | 171° |
| 2026-04-25 19:42 | 45.24255 | -121.85895 | 39962 ft | 506 kts | 172° |
| 2026-04-25 19:42 | 45.20824 | -121.85101 | 40176 ft | 505 kts | 172° |
| 2026-04-25 19:42 | 45.17308 | -121.84290 | 40359 ft | 506 kts | 172° |
| 2026-04-25 19:42 | 45.13842 | -121.83492 | 40535 ft | 506 kts | 171° |
| 2026-04-25 19:43 | 45.10367 | -121.82692 | 40729 ft | 505 kts | 172° |
| 2026-04-25 19:43 | 45.06940 | -121.81903 | 40871 ft | 505 kts | 172° |
| 2026-04-25 19:43 | 44.99992 | -121.80309 | 40938 ft | 506 kts | 172° |
| 2026-04-25 19:44 | 44.93043 | -121.78720 | 40935 ft | 506 kts | 172° |
| 2026-04-25 19:44 | 44.86100 | -121.77132 | 40935 ft | 505 kts | 172° |
| 2026-04-25 19:45 | 44.79186 | -121.75559 | 40938 ft | 503 kts | 172° |
| 2026-04-25 19:45 | 44.72276 | -121.73991 | 40945 ft | 503 kts | 172° |
| 2026-04-25 19:46 | 44.65372 | -121.72427 | 40938 ft | 502 kts | 172° |
| 2026-04-25 19:46 | 44.58470 | -121.70865 | 40925 ft | 502 kts | 172° |
| 2026-04-25 19:47 | 44.51573 | -121.69309 | 40937 ft | 502 kts | 172° |
| 2026-04-25 19:47 | 44.44676 | -121.67757 | 40932 ft | 502 kts | 172° |
| 2026-04-25 19:48 | 44.37777 | -121.66209 | 40926 ft | 502 kts | 172° |
| 2026-04-25 19:48 | 44.30887 | -121.64668 | 40930 ft | 502 kts | 173° |
| 2026-04-25 19:49 | 44.26273 | -121.63613 | 40935 ft | 502 kts | 172° |
| 2026-04-25 19:49 | 44.17110 | -121.61464 | 40919 ft | 502 kts | 172° |
| 2026-04-25 19:50 | 44.06777 | -121.59063 | 40925 ft | 502 kts | 172° |
| 2026-04-25 19:51 | 43.99894 | -121.57478 | 40914 ft | 502 kts | 173° |
| 2026-04-25 19:51 | 43.93007 | -121.55897 | 40913 ft | 502 kts | 173° |
| 2026-04-25 19:52 | 43.86117 | -121.54318 | 40895 ft | 502 kts | 173° |
| 2026-04-25 19:52 | 43.79237 | -121.52744 | 40898 ft | 501 kts | 173° |
| 2026-04-25 19:53 | 43.72362 | -121.51175 | 40888 ft | 501 kts | 173° |
| 2026-04-25 19:53 | 43.65491 | -121.49611 | 40877 ft | 500 kts | 173° |
| 2026-04-25 19:54 | 43.58637 | -121.48053 | 40878 ft | 499 kts | 173° |
| 2026-04-25 19:54 | 43.51789 | -121.46502 | 40870 ft | 498 kts | 173° |
| 2026-04-25 19:55 | 43.44946 | -121.44956 | 40864 ft | 498 kts | 174° |
| 2026-04-25 19:55 | 43.38103 | -121.43412 | 40870 ft | 498 kts | 174° |
| 2026-04-25 19:56 | 43.31261 | -121.41873 | 40865 ft | 498 kts | 174° |
| 2026-04-25 19:56 | 43.24422 | -121.40338 | 40868 ft | 498 kts | 174° |
| 2026-04-25 19:57 | 43.17586 | -121.38807 | 40867 ft | 498 kts | 174° |
| 2026-04-25 19:57 | 43.10754 | -121.37280 | 40870 ft | 497 kts | 174° |
| 2026-04-25 19:58 | 43.03924 | -121.35756 | 40866 ft | 498 kts | 174° |
| 2026-04-25 19:58 | 42.97087 | -121.34235 | 40864 ft | 498 kts | 174° |
| 2026-04-25 19:59 | 42.90253 | -121.32718 | 40864 ft | 498 kts | 174° |
| 2026-04-25 19:59 | 42.83413 | -121.31208 | 40855 ft | 498 kts | 175° |
| 2026-04-25 20:00 | 42.76573 | -121.29695 | 40856 ft | 498 kts | 174° |
| 2026-04-25 20:00 | 42.69733 | -121.28184 | 40849 ft | 498 kts | 175° |
| 2026-04-25 20:01 | 42.59465 | -121.25927 | 40846 ft | 499 kts | 175° |
| 2026-04-25 20:01 | 42.52616 | -121.24425 | 40838 ft | 499 kts | 175° |
| 2026-04-25 20:02 | 42.45764 | -121.22926 | 40837 ft | 498 kts | 175° |
| 2026-04-25 20:02 | 42.38926 | -121.21432 | 40838 ft | 497 kts | 175° |
| 2026-04-25 20:03 | 42.32103 | -121.19946 | 40829 ft | 497 kts | 175° |
| 2026-04-25 20:03 | 42.25278 | -121.18464 | 40832 ft | 497 kts | 175° |
| 2026-04-25 20:04 | 42.19608 | -121.17234 | 40826 ft | 496 kts | 175° |
| 2026-04-25 20:04 | 42.12793 | -121.15759 | 40825 ft | 496 kts | 175° |
| 2026-04-25 20:05 | 42.05981 | -121.14287 | 40822 ft | 494 kts | 175° |
| 2026-04-25 20:05 | 41.99202 | -121.12826 | 40813 ft | 493 kts | 175° |
| 2026-04-25 20:06 | 41.92428 | -121.11370 | 40794 ft | 493 kts | 175° |
| 2026-04-25 20:06 | 41.85669 | -121.09919 | 40799 ft | 491 kts | 175° |
| 2026-04-25 20:07 | 41.78880 | -121.08465 | 40796 ft | 491 kts | 175° |
| 2026-04-25 20:07 | 41.72144 | -121.07026 | 40792 ft | 490 kts | 175° |
| 2026-04-25 20:08 | 41.65412 | -121.05591 | 40790 ft | 489 kts | 175° |
| 2026-04-25 20:08 | 41.58727 | -121.04169 | 40792 ft | 489 kts | 175° |
| 2026-04-25 20:09 | 41.51964 | -121.02733 | 40799 ft | 489 kts | 175° |
| 2026-04-25 20:09 | 41.45248 | -121.01310 | 40800 ft | 488 kts | 175° |
| 2026-04-25 20:10 | 41.38540 | -120.99892 | 40800 ft | 488 kts | 175° |
| 2026-04-25 20:10 | 41.31829 | -120.98476 | 40801 ft | 488 kts | 175° |
| 2026-04-25 20:11 | 41.25120 | -120.97064 | 40792 ft | 488 kts | 175° |
| 2026-04-25 20:11 | 41.18410 | -120.95653 | 40781 ft | 488 kts | 175° |
| 2026-04-25 20:12 | 41.11713 | -120.94249 | 40802 ft | 487 kts | 175° |
| 2026-04-25 20:12 | 41.06146 | -120.93085 | 40801 ft | 487 kts | 175° |
| 2026-04-25 20:13 | 40.98315 | -120.91723 | 40802 ft | 484 kts | 180° |
| 2026-04-25 20:13 | 40.91650 | -120.91116 | 40805 ft | 483 kts | 181° |
| 2026-04-25 20:14 | 40.84945 | -120.90591 | 40805 ft | 482 kts | 181° |
| 2026-04-25 20:14 | 40.78244 | -120.90071 | 40803 ft | 482 kts | 181° |
| 2026-04-25 20:15 | 40.71557 | -120.89543 | 40802 ft | 481 kts | 181° |
| 2026-04-25 20:15 | 40.64885 | -120.89012 | 40806 ft | 481 kts | 181° |
| 2026-04-25 20:16 | 40.58205 | -120.88481 | 40812 ft | 480 kts | 181° |
| 2026-04-25 20:16 | 40.51537 | -120.87951 | 40822 ft | 480 kts | 181° |
| 2026-04-25 20:17 | 40.44868 | -120.87423 | 40817 ft | 480 kts | 181° |
| 2026-04-25 20:17 | 40.38209 | -120.86897 | 40829 ft | 480 kts | 181° |
| 2026-04-25 20:18 | 40.31546 | -120.86372 | 40820 ft | 480 kts | 181° |
| 2026-04-25 20:18 | 40.24887 | -120.85848 | 40812 ft | 480 kts | 181° |
| 2026-04-25 20:19 | 40.18225 | -120.85325 | 40811 ft | 479 kts | 181° |
| 2026-04-25 20:19 | 40.11565 | -120.84803 | 40800 ft | 479 kts | 181° |
| 2026-04-25 20:20 | 40.04905 | -120.84282 | 40799 ft | 479 kts | 181° |
| 2026-04-25 20:20 | 39.98246 | -120.83762 | 40810 ft | 479 kts | 181° |
| 2026-04-25 20:21 | 39.91590 | -120.83243 | 40814 ft | 479 kts | 181° |
| 2026-04-25 20:21 | 39.84937 | -120.82725 | 40820 ft | 479 kts | 181° |
| 2026-04-25 20:22 | 39.80490 | -120.82380 | 40830 ft | 479 kts | 181° |
| 2026-04-25 20:22 | 39.71637 | -120.81694 | 40834 ft | 479 kts | 181° |
| 2026-04-25 20:23 | 39.64991 | -120.81181 | 40846 ft | 478 kts | 181° |
| 2026-04-25 20:23 | 39.58366 | -120.80668 | 40849 ft | 477 kts | 181° |
| 2026-04-25 20:24 | 39.51741 | -120.80158 | 40847 ft | 477 kts | 181° |
| 2026-04-25 20:24 | 39.45126 | -120.79649 | 40853 ft | 475 kts | 181° |
| 2026-04-25 20:25 | 39.38525 | -120.79143 | 40856 ft | 475 kts | 181° |
| 2026-04-25 20:25 | 39.31932 | -120.78637 | 40947 ft | 475 kts | 181° |
| 2026-04-25 20:26 | 39.25350 | -120.78134 | 40943 ft | 473 kts | 181° |
| 2026-04-25 20:26 | 39.18784 | -120.77633 | 40942 ft | 472 kts | 181° |
| 2026-04-25 20:27 | 39.12225 | -120.77134 | 40911 ft | 472 kts | 181° |
| 2026-04-25 20:27 | 39.05662 | -120.76636 | 40908 ft | 472 kts | 181° |
| 2026-04-25 20:28 | 38.99114 | -120.76139 | 40898 ft | 471 kts | 181° |
| 2026-04-25 20:28 | 38.92565 | -120.75643 | 40900 ft | 471 kts | 181° |
| 2026-04-25 20:29 | 38.86017 | -120.75148 | 40927 ft | 471 kts | 181° |
| 2026-04-25 20:29 | 38.79474 | -120.74652 | 40934 ft | 471 kts | 181° |
| 2026-04-25 20:30 | 38.72937 | -120.74160 | 40925 ft | 471 kts | 181° |
| 2026-04-25 20:30 | 38.66404 | -120.73670 | 40907 ft | 470 kts | 181° |
| 2026-04-25 20:31 | 38.59876 | -120.73181 | 40912 ft | 470 kts | 181° |
| 2026-04-25 20:31 | 38.53345 | -120.72692 | 40919 ft | 470 kts | 181° |
| 2026-04-25 20:32 | 38.47925 | -120.72287 | 40923 ft | 470 kts | 181° |
| 2026-04-25 20:32 | 38.40297 | -120.71717 | 40924 ft | 470 kts | 181° |
| 2026-04-25 20:33 | 38.33764 | -120.71230 | 40914 ft | 470 kts | 181° |
| 2026-04-25 20:33 | 38.29453 | -120.70910 | 40923 ft | 469 kts | 181° |
| 2026-04-25 20:34 | 38.20751 | -120.70263 | 40934 ft | 468 kts | 181° |
| 2026-04-25 20:34 | 38.14255 | -120.69782 | 40925 ft | 468 kts | 181° |
| 2026-04-25 20:35 | 38.07771 | -120.69302 | 40933 ft | 466 kts | 181° |
| 2026-04-25 20:35 | 38.01304 | -120.68824 | 40932 ft | 465 kts | 181° |
| 2026-04-25 20:36 | 37.94843 | -120.68348 | 40921 ft | 465 kts | 181° |
| 2026-04-25 20:36 | 37.88380 | -120.67873 | 40925 ft | 464 kts | 181° |
| 2026-04-25 20:37 | 37.81939 | -120.67400 | 40933 ft | 464 kts | 181° |
| 2026-04-25 20:37 | 37.75490 | -120.66928 | 40918 ft | 464 kts | 181° |
| 2026-04-25 20:38 | 37.69036 | -120.66455 | 40913 ft | 464 kts | 181° |
| 2026-04-25 20:38 | 37.63114 | -120.66023 | 40912 ft | 464 kts | 181° |
| 2026-04-25 20:39 | 37.56661 | -120.65552 | 40921 ft | 464 kts | 181° |
| 2026-04-25 20:39 | 37.52390 | -120.65241 | 40915 ft | 464 kts | 181° |
| 2026-04-25 20:40 | 37.43759 | -120.64613 | 40924 ft | 464 kts | 181° |
| 2026-04-25 20:40 | 37.37310 | -120.64146 | 40929 ft | 464 kts | 181° |
| 2026-04-25 20:41 | 37.30993 | -120.63116 | 40928 ft | 470 kts | 171° |
| 2026-04-25 20:41 | 37.24651 | -120.61105 | 40927 ft | 470 kts | 170° |
| 2026-04-25 20:42 | 37.18362 | -120.59065 | 40928 ft | 470 kts | 170° |
| 2026-04-25 20:42 | 37.11997 | -120.57001 | 40927 ft | 470 kts | 170° |
| 2026-04-25 20:43 | 37.05707 | -120.54964 | 40933 ft | 469 kts | 170° |
| 2026-04-25 20:43 | 36.99346 | -120.52907 | 40933 ft | 469 kts | 170° |
| 2026-04-25 20:44 | 36.93019 | -120.50865 | 40929 ft | 470 kts | 171° |
| 2026-04-25 20:44 | 36.87756 | -120.49170 | 40932 ft | 470 kts | 171° |
| 2026-04-25 20:45 | 36.81417 | -120.47130 | 40929 ft | 470 kts | 171° |
| 2026-04-25 20:45 | 36.75071 | -120.45091 | 40913 ft | 471 kts | 171° |
| 2026-04-25 20:46 | 36.68735 | -120.43059 | 40931 ft | 470 kts | 171° |
| 2026-04-25 20:46 | 36.62412 | -120.41035 | 40929 ft | 469 kts | 171° |
| 2026-04-25 20:47 | 36.56086 | -120.39014 | 40924 ft | 469 kts | 171° |
| 2026-04-25 20:47 | 36.49752 | -120.36994 | 40928 ft | 470 kts | 171° |
| 2026-04-25 20:48 | 36.43412 | -120.34975 | 40931 ft | 471 kts | 171° |
| 2026-04-25 20:48 | 36.37069 | -120.32958 | 40916 ft | 470 kts | 171° |
| 2026-04-25 20:49 | 36.30733 | -120.30946 | 40926 ft | 469 kts | 171° |
| 2026-04-25 20:49 | 36.24425 | -120.28947 | 40937 ft | 468 kts | 171° |
| 2026-04-25 20:50 | 36.18116 | -120.26952 | 40936 ft | 468 kts | 171° |
| 2026-04-25 20:50 | 36.11810 | -120.24960 | 40936 ft | 467 kts | 172° |
| 2026-04-25 20:51 | 36.05523 | -120.22977 | 40942 ft | 466 kts | 172° |
| 2026-04-25 20:51 | 35.99241 | -120.21000 | 40944 ft | 466 kts | 172° |
| 2026-04-25 20:52 | 35.93971 | -120.19344 | 40953 ft | 466 kts | 172° |
| 2026-04-25 20:52 | 35.86658 | -120.17050 | 40949 ft | 467 kts | 172° |
| 2026-04-25 20:53 | 35.80361 | -120.15077 | 40955 ft | 467 kts | 172° |
| 2026-04-25 20:53 | 35.74071 | -120.13110 | 40952 ft | 467 kts | 172° |
| 2026-04-25 20:54 | 35.67791 | -120.11008 | 40952 ft | 472 kts | 167° |
| 2026-04-25 20:54 | 35.61881 | -120.07275 | 40968 ft | 482 kts | 155° |
| 2026-04-25 20:55 | 35.56171 | -120.02935 | 40953 ft | 483 kts | 155° |
| 2026-04-25 20:55 | 35.50455 | -119.98613 | 40961 ft | 482 kts | 155° |
| 2026-04-25 20:56 | 35.44739 | -119.94311 | 40731 ft | 481 kts | 156° |
| 2026-04-25 20:56 | 35.41887 | -119.92169 | 40483 ft | 481 kts | 155° |
| 2026-04-25 20:56 | 35.39031 | -119.90026 | 40229 ft | 481 kts | 156° |
| 2026-04-25 20:57 | 35.36177 | -119.87887 | 39979 ft | 480 kts | 156° |
| 2026-04-25 20:57 | 35.33332 | -119.85756 | 39401 ft | 479 kts | 156° |
| 2026-04-25 20:57 | 35.30483 | -119.83624 | 38698 ft | 481 kts | 156° |
| 2026-04-25 20:57 | 35.27699 | -119.81319 | 37854 ft | 486 kts | 151° |
| 2026-04-25 20:58 | 35.24999 | -119.78823 | 37059 ft | 486 kts | 150° |
| 2026-04-25 20:58 | 35.22326 | -119.76314 | 36307 ft | 484 kts | 149° |
| 2026-04-25 20:58 | 35.19655 | -119.73807 | 35604 ft | 482 kts | 150° |
| 2026-04-25 20:58 | 35.16999 | -119.71323 | 34873 ft | 481 kts | 150° |
| 2026-04-25 20:59 | 35.14335 | -119.68835 | 34060 ft | 481 kts | 150° |
| 2026-04-25 20:59 | 35.11681 | -119.66361 | 33128 ft | 482 kts | 150° |
| 2026-04-25 20:59 | 35.09012 | -119.63876 | 32225 ft | 481 kts | 150° |
| 2026-04-25 20:59 | 35.06353 | -119.61401 | 31325 ft | 481 kts | 149° |
| 2026-04-25 21:00 | 35.03695 | -119.58929 | 30398 ft | 481 kts | 150° |
| 2026-04-25 21:00 | 35.02798 | -119.58095 | 30168 ft | 479 kts | 150° |
| 2026-04-25 21:00 | 34.95861 | -119.51651 | 28343 ft | 463 kts | 150° |
| 2026-04-25 21:01 | 34.93315 | -119.49289 | 27690 ft | 457 kts | 150° |
| 2026-04-25 21:01 | 34.90797 | -119.46959 | 27038 ft | 452 kts | 150° |
| 2026-04-25 21:01 | 34.88286 | -119.44695 | 26410 ft | 446 kts | 151° |
| 2026-04-25 21:01 | 34.85825 | -119.42499 | 26231 ft | 431 kts | 152° |
| 2026-04-25 21:02 | 34.83458 | -119.40378 | 26101 ft | 415 kts | 152° |
| 2026-04-25 21:02 | 34.81171 | -119.38330 | 25971 ft | 401 kts | 152° |
| 2026-04-25 21:02 | 34.78962 | -119.36357 | 25831 ft | 387 kts | 153° |
| 2026-04-25 21:02 | 34.76819 | -119.34452 | 25539 ft | 379 kts | 153° |
| 2026-04-25 21:03 | 34.74683 | -119.32561 | 24995 ft | 379 kts | 153° |
| 2026-04-25 21:03 | 34.72556 | -119.30690 | 24509 ft | 377 kts | 153° |
| 2026-04-25 21:03 | 34.70431 | -119.28840 | 24052 ft | 375 kts | 153° |
| 2026-04-25 21:03 | 34.68274 | -119.26973 | 23617 ft | 393 kts | 153° |
| 2026-04-25 21:04 | 34.66009 | -119.25016 | 23122 ft | 398 kts | 153° |
| 2026-04-25 21:04 | 34.63781 | -119.23074 | 22603 ft | 392 kts | 153° |
| 2026-04-25 21:04 | 34.61579 | -119.21164 | 22138 ft | 386 kts | 152° |
| 2026-04-25 21:04 | 34.59417 | -119.19296 | 21740 ft | 379 kts | 153° |
| 2026-04-25 21:05 | 34.57288 | -119.17459 | 21353 ft | 373 kts | 153° |
| 2026-04-25 21:05 | 34.55177 | -119.15638 | 20937 ft | 372 kts | 152° |
| 2026-04-25 21:05 | 34.53092 | -119.13794 | 20374 ft | 372 kts | 151° |
| 2026-04-25 21:05 | 34.51008 | -119.11937 | 19769 ft | 371 kts | 151° |
| 2026-04-25 21:06 | 34.48935 | -119.10093 | 19211 ft | 370 kts | 150° |
| 2026-04-25 21:06 | 34.46870 | -119.08262 | 18883 ft | 362 kts | 150° |
| 2026-04-25 21:06 | 34.44860 | -119.06481 | 18560 ft | 356 kts | 150° |
| 2026-04-25 21:06 | 34.43504 | -119.05288 | 18037 ft | 359 kts | 150° |
| 2026-04-25 21:07 | 34.40799 | -119.02957 | 17130 ft | 361 kts | 151° |
| 2026-04-25 21:07 | 34.38766 | -119.01197 | 16328 ft | 355 kts | 150° |
| 2026-04-25 21:07 | 34.36779 | -118.99473 | 15572 ft | 351 kts | 150° |
| 2026-04-25 21:07 | 34.34773 | -118.97740 | 15020 ft | 354 kts | 150° |
| 2026-04-25 21:08 | 34.32776 | -118.95995 | 14487 ft | 354 kts | 149° |
| 2026-04-25 21:08 | 34.30811 | -118.94200 | 13954 ft | 351 kts | 149° |
| 2026-04-25 21:08 | 34.28882 | -118.92431 | 13471 ft | 346 kts | 150° |
| 2026-04-25 21:08 | 34.26982 | -118.90697 | 13181 ft | 338 kts | 150° |
| 2026-04-25 21:09 | 34.23387 | -118.87416 | 12837 ft | 310 kts | 150° |
| 2026-04-25 21:09 | 34.21712 | -118.85865 | 12709 ft | 300 kts | 150° |
| 2026-04-25 21:09 | 34.20048 | -118.84335 | 12580 ft | 301 kts | 150° |
| 2026-04-25 21:10 | 34.18361 | -118.82787 | 12449 ft | 300 kts | 149° |
| 2026-04-25 21:10 | 34.16701 | -118.81264 | 12276 ft | 300 kts | 149° |
| 2026-04-25 21:10 | 34.15063 | -118.79690 | 11840 ft | 302 kts | 144° |
| 2026-04-25 21:10 | 34.13522 | -118.77980 | 11429 ft | 300 kts | 142° |
| 2026-04-25 21:11 | 34.12002 | -118.76263 | 11063 ft | 298 kts | 142° |
| 2026-04-25 21:11 | 34.10488 | -118.74578 | 10717 ft | 296 kts | 142° |
| 2026-04-25 21:11 | 34.08966 | -118.72904 | 10362 ft | 295 kts | 142° |
| 2026-04-25 21:11 | 34.07448 | -118.71249 | 10023 ft | 293 kts | 142° |
| 2026-04-25 21:12 | 34.05937 | -118.69608 | 9633 ft | 291 kts | 141° |
| 2026-04-25 21:12 | 34.04431 | -118.67979 | 9321 ft | 289 kts | 140° |
| 2026-04-25 21:12 | 34.03200 | -118.66121 | 9138 ft | 285 kts | 120° |
| 2026-04-25 21:12 | 34.02779 | -118.64623 | 8926 ft | 286 kts | 103° |
| 2026-04-25 21:13 | 34.02439 | -118.61453 | 8497 ft | 286 kts | 98° |
| 2026-04-25 21:13 | 34.02240 | -118.59071 | 8207 ft | 285 kts | 98° |
| 2026-04-25 21:13 | 34.02031 | -118.56691 | 8071 ft | 285 kts | 98° |
| 2026-04-25 21:13 | 34.01816 | -118.54326 | 7942 ft | 283 kts | 98° |
| 2026-04-25 21:14 | 34.01599 | -118.51976 | 7747 ft | 282 kts | 98° |
| 2026-04-25 21:14 | 34.01382 | -118.49631 | 7494 ft | 281 kts | 98° |
| 2026-04-25 21:14 | 34.01164 | -118.47292 | 7229 ft | 281 kts | 98° |
| 2026-04-25 21:14 | 34.01158 | -118.44947 | 7000 ft | 279 kts | 83° |
| 2026-04-25 21:15 | 34.01504 | -118.42665 | 6763 ft | 275 kts | 79° |
| 2026-04-25 21:15 | 34.01899 | -118.40448 | 6539 ft | 266 kts | 78° |
| 2026-04-25 21:15 | 34.02281 | -118.38300 | 6355 ft | 257 kts | 78° |
| 2026-04-25 21:15 | 34.02646 | -118.36230 | 6150 ft | 248 kts | 80° |
| 2026-04-25 21:16 | 34.02962 | -118.34247 | 5817 ft | 235 kts | 84° |
| 2026-04-25 21:16 | 34.03148 | -118.32328 | 5441 ft | 227 kts | 87° |
| 2026-04-25 21:16 | 34.03310 | -118.30494 | 5073 ft | 220 kts | 86° |
| 2026-04-25 21:16 | 34.03483 | -118.28689 | 4683 ft | 214 kts | 86° |
| 2026-04-25 21:17 | 34.03673 | -118.26911 | 4298 ft | 208 kts | 86° |
| 2026-04-25 21:17 | 34.03859 | -118.25215 | 4003 ft | 199 kts | 85° |
| 2026-04-25 21:17 | 34.04040 | -118.23586 | 3745 ft | 194 kts | 85° |
| 2026-04-25 21:17 | 34.04221 | -118.21929 | 3502 ft | 207 kts | 86° |
| 2026-04-25 21:18 | 34.04412 | -118.20167 | 3306 ft | 214 kts | 86° |
| 2026-04-25 21:18 | 34.04610 | -118.18393 | 3047 ft | 213 kts | 85° |
| 2026-04-25 21:18 | 34.04793 | -118.16609 | 2780 ft | 214 kts | 89° |
| 2026-04-25 21:18 | 34.04491 | -118.14923 | 2600 ft | 200 kts | 124° |
| 2026-04-25 21:19 | 34.03537 | -118.13900 | 2582 ft | 177 kts | 160° |
| 2026-04-25 21:19 | 34.02370 | -118.13465 | 2592 ft | 174 kts | 171° |
| 2026-04-25 21:19 | 34.01184 | -118.13156 | 2605 ft | 177 kts | 171° |
| 2026-04-25 21:19 | 33.99975 | -118.12873 | 2586 ft | 176 kts | 172° |
| 2026-04-25 21:20 | 33.98751 | -118.12760 | 2594 ft | 180 kts | 191° |
| 2026-04-25 21:20 | 33.98362 | -118.12900 | 2599 ft | 180 kts | 202° |
| 2026-04-25 21:20 | 33.97300 | -118.14904 | 2596 ft | 185 kts | 269° |
| 2026-04-25 21:20 | 33.97390 | -118.16452 | 2600 ft | 185 kts | 268° |
| 2026-04-25 21:21 | 33.97405 | -118.17984 | 2607 ft | 181 kts | 264° |
| 2026-04-25 21:21 | 33.97322 | -118.19486 | 2601 ft | 179 kts | 260° |
| 2026-04-25 21:21 | 33.97183 | -118.20967 | 2575 ft | 177 kts | 259° |
| 2026-04-25 21:21 | 33.97035 | -118.22393 | 2573 ft | 165 kts | 260° |
| 2026-04-25 21:22 | 33.96898 | -118.23730 | 2581 ft | 160 kts | 260° |
| 2026-04-25 21:22 | 33.96767 | -118.25049 | 2580 ft | 157 kts | 257° |
| 2026-04-25 21:22 | 33.96633 | -118.26349 | 2410 ft | 156 kts | 259° |
| 2026-04-25 21:22 | 33.96499 | -118.27654 | 2189 ft | 158 kts | 259° |
| 2026-04-25 21:23 | 33.96366 | -118.28952 | 1991 ft | 153 kts | 260° |
| 2026-04-25 21:23 | 33.96281 | -118.29784 | 1843 ft | 149 kts | 259° |
| 2026-04-25 21:23 | 33.96158 | -118.30988 | 1636 ft | 140 kts | 259° |
| 2026-04-25 21:23 | 33.96043 | -118.32105 | 1453 ft | 129 kts | 260° |
| 2026-04-25 21:24 | 33.95935 | -118.33163 | 1295 ft | 127 kts | 259° |
| 2026-04-25 21:24 | 33.95827 | -118.34221 | 1119 ft | 125 kts | 259° |
| 2026-04-25 21:24 | 33.95726 | -118.35258 | 910 ft | 121 kts | 258° |
| 2026-04-25 21:24 | 33.95613 | -118.36254 | 762 ft | 122 kts | 261° |
| 2026-04-25 21:25 | 33.95518 | -118.37281 | 585 ft | 122 kts | 257° |
| 2026-04-25 21:25 | 33.95416 | -118.38288 | 430 ft | 119 kts | 256° |
| 2026-04-25 21:25 | 33.95300 | -118.39303 | 272 ft | 122 kts | 260° |
| 2026-04-25 21:25 | 33.95199 | -118.40314 | 124 ft | 122 kts | 257° |
| 2026-04-25 21:26 | 33.95106 | -118.41209 | 103 ft | 86 kts | 264° |
| 2026-04-25 21:26 | 33.95054 | -118.41730 | 103 ft | 39 kts | 262° |
| 2026-04-25 21:26 | 33.95032 | -118.41941 | 101 ft | 15 kts | 263° |
| 2026-04-25 21:26 | 33.95006 | -118.42070 | 101 ft | 16 kts | 251° |
| 2026-04-25 21:27 | 33.94941 | -118.42190 | 104 ft | 18 kts | 227° |
| 2026-04-25 21:27 | 33.94871 | -118.42265 | 104 ft | 11 kts | 207° |
| 2026-04-25 21:27 | 33.94789 | -118.42282 | 103 ft | 11 kts | 180° |
| 2026-04-25 21:27 | 33.94722 | -118.42274 | 104 ft | 10 kts | 171° |
| 2026-04-25 21:28 | 33.94687 | -118.42207 | 103 ft | 12 kts | 86° |
| 2026-04-25 21:28 | 33.94695 | -118.42116 | 101 ft | 8 kts | 83° |
| 2026-04-25 21:28 | 33.94704 | -118.42030 | 103 ft | 13 kts | 83° |
| 2026-04-25 21:28 | 33.94715 | -118.41915 | 100 ft | 8 kts | 84° |
| 2026-04-25 21:29 | 33.94722 | -118.41836 | 99 ft | 11 kts | 83° |
| 2026-04-25 21:29 | 33.94733 | -118.41728 | 101 ft | 14 kts | 82° |
| 2026-04-25 21:29 | 33.94747 | -118.41593 | 103 ft | 18 kts | 83° |
| 2026-04-25 21:29 | 33.94761 | -118.41461 | 103 ft | 12 kts | 83° |
| 2026-04-25 21:30 | 33.94782 | -118.41372 | 101 ft | 9 kts | 76° |
| 2026-04-25 21:30 | 33.94771 | -118.41311 | 102 ft | 8 kts | 134° |
| 2026-04-25 21:30 | 33.94715 | -118.41274 | 101 ft | 10 kts | 131° |
| 2026-04-25 21:30 | 33.94707 | -118.41216 | 104 ft | 12 kts | 78° |
| 2026-04-25 21:31 | 33.94732 | -118.41070 | 101 ft | 8 kts | 81° |
| 2026-04-25 21:31 | 33.94739 | -118.40995 | 100 ft | 9 kts | 87° |
| 2026-04-25 21:31 | 33.94714 | -118.40921 | 101 ft | 9 kts | 127° |
| 2026-04-25 21:31 | 33.94691 | -118.40881 | 102 ft | 7 kts | 122° |
| 2026-04-25 21:32 | 33.94680 | -118.40859 | 103 ft | 2 kts | 121° |
| 2026-04-25 21:32 | 33.94677 | -118.40854 | 103 ft | 4 kts | 119° |
| 2026-04-25 21:32 | 33.94676 | -118.40852 | 103 ft | 0 kts | 119° |